Portada
METAR-TAF:

METAR-TAF

Aeroports :

Al-Kuwait, Kuwait

latitud: 29-13N, longitud: 047-59E, altitud: 55 m

Observació

L'informe es va fer fa 37 minuts, a les 21:00 UTC
Vent 11 kt del Nord
Temperatura 32°C
Humitat 23%
Pressió 1010 hPa
Visibilitat 10 km o més
sense núvols per sota de 1500 mi sense presència de cumulonimbus.

METAR: OKBK 262100Z 36011KT CAVOK 32/08 Q1010 NOSIG

Hora: 00:37 (21:37 UTC)

Pronòstic

L'informe es va fer fa 4 hores i 52 minuts, a les 16:45 UTC
Pronòstic vàlid del 26 a les 18 UTC al 27 a les 24 UTC
Vent 12 kt del Nord/Nord-Oest
Visibilitat: 7000 m

TAF: OKBK 261645Z 2618/2724 34012KT 7000 NSC

Observacions i pronòstics meteorològics de més de 4000 aeroports (METAR i TAF).

Les estacions disponibles són els punts grocs i vermells al mapa.

Posi el ratolí al punt desitjat per veure el nom de l'estació.

Feu clic per veure les observacions i els pronòstics meteorològics.

Per canviar el mapa: feu clic els botons verds amb una creu de color negre per apropar; al botó verd amb un guió per allunyar la imatge; o en les fletxes verdes per a mapes adjacents.


METAR-TAF: